createdAt,value
2023-03-21T00:01:52.598Z,9.23
2023-03-21T00:04:19.072Z,9.01
2023-03-21T00:06:45.486Z,9.05
2023-03-21T00:11:55.699Z,8.69
2023-03-21T00:14:22.096Z,8.40
2023-03-21T00:16:48.516Z,8.01
2023-03-21T00:19:14.985Z,8.03
2023-03-21T00:21:59.246Z,8.10
2023-03-21T00:24:27.687Z,8.39
2023-03-21T00:26:54.080Z,8.35
2023-03-21T00:29:20.421Z,8.47
2023-03-21T00:31:46.770Z,8.47
2023-03-21T00:36:44.485Z,8.36
2023-03-21T00:39:10.892Z,8.22
2023-03-21T00:41:44.552Z,8.42
2023-03-21T00:44:10.969Z,8.63
2023-03-21T00:46:45.557Z,8.87
2023-03-21T00:49:13.492Z,9.07
2023-03-21T00:51:39.848Z,9.11
2023-03-21T00:54:06.189Z,8.99
2023-03-21T00:56:32.586Z,9.01
2023-03-21T00:58:59.030Z,8.93
2023-03-21T01:01:25.391Z,9.04
2023-03-21T01:03:51.738Z,8.97
2023-03-21T01:06:18.082Z,8.93
2023-03-21T01:11:28.333Z,9.19
2023-03-21T01:14:04.121Z,9.22
2023-03-21T01:16:37.551Z,9.35
2023-03-21T01:19:06.968Z,9.17
2023-03-21T01:21:33.541Z,9.03
2023-03-21T01:23:59.919Z,8.69
2023-03-21T01:26:26.314Z,8.58
2023-03-21T01:28:52.672Z,8.24
2023-03-21T01:31:19.119Z,8.27
2023-03-21T01:33:45.530Z,8.00
2023-03-21T01:36:13.556Z,8.26
2023-03-21T01:38:40.298Z,8.01
2023-03-21T01:41:18.618Z,7.94
2023-03-21T01:43:45.520Z,7.98
2023-03-21T01:46:11.917Z,7.67
2023-03-21T01:48:38.300Z,7.78
2023-03-21T01:51:04.713Z,7.44
2023-03-21T01:53:31.115Z,7.17
2023-03-21T01:55:57.496Z,7.00
2023-03-21T01:58:23.829Z,7.08
2023-03-21T02:00:50.236Z,7.71
2023-03-21T02:03:26.341Z,7.63
2023-03-21T02:05:59.836Z,7.69
2023-03-21T02:08:38.264Z,7.49
2023-03-21T02:11:04.976Z,7.47
2023-03-21T02:13:31.321Z,7.72
2023-03-21T02:15:57.708Z,8.02
2023-03-21T02:18:24.081Z,8.16
2023-03-21T02:20:50.459Z,8.38
2023-03-21T02:23:16.854Z,8.34
2023-03-21T02:25:43.203Z,8.43
2023-03-21T02:28:09.587Z,8.09
2023-03-21T02:30:49.061Z,8.18
2023-03-21T02:33:15.833Z,8.37
2023-03-21T02:35:52.415Z,8.29
2023-03-21T02:38:19.978Z,8.35
2023-03-21T02:40:46.367Z,8.09
2023-03-21T02:43:22.552Z,8.14
2023-03-21T02:45:49.697Z,8.17
2023-03-21T02:48:29.372Z,8.35
2023-03-21T02:50:59.591Z,8.46
2023-03-21T02:53:25.931Z,7.95
2023-03-21T02:55:52.307Z,7.68
2023-03-21T02:58:18.746Z,8.04
2023-03-21T03:00:45.142Z,7.81
2023-03-21T03:03:17.971Z,8.17
2023-03-21T03:05:44.688Z,8.16
2023-03-21T03:08:11.094Z,7.97
2023-03-21T03:10:37.723Z,7.89
2023-03-21T03:13:04.354Z,8.24
2023-03-21T03:15:30.741Z,8.02
2023-03-21T03:17:57.104Z,7.75
2023-03-21T03:20:23.489Z,7.91
2023-03-21T03:22:49.877Z,8.22
2023-03-21T03:25:23.149Z,8.41
2023-03-21T03:27:56.035Z,8.50
2023-03-21T03:30:25.405Z,8.73
2023-03-21T03:32:53.715Z,8.73
2023-03-21T03:35:20.070Z,8.82
2023-03-21T03:37:46.401Z,8.82
2023-03-21T03:40:12.782Z,8.89
2023-03-21T03:42:39.128Z,9.02
2023-03-21T03:45:05.524Z,9.07
2023-03-21T03:47:36.211Z,9.03
2023-03-21T03:50:04.267Z,8.86
2023-03-21T03:52:30.652Z,8.77
2023-03-21T03:54:57.047Z,8.66
2023-03-21T03:57:23.440Z,8.71
2023-03-21T03:59:49.831Z,8.88
2023-03-21T04:02:16.226Z,9.02
2023-03-21T04:04:42.662Z,8.95
2023-03-21T04:07:09.075Z,9.14
2023-03-21T04:09:44.190Z,8.99
2023-03-21T04:12:11.382Z,8.77
2023-03-21T04:14:44.408Z,8.80
2023-03-21T04:17:11.199Z,8.78
2023-03-21T04:19:37.555Z,8.66
2023-03-21T04:22:03.895Z,8.74
2023-03-21T04:24:30.262Z,8.54
2023-03-21T04:26:56.654Z,8.37
2023-03-21T04:29:23.000Z,8.67
2023-03-21T04:31:49.372Z,8.67
2023-03-21T04:34:15.744Z,8.37
2023-03-21T04:36:42.148Z,8.47
2023-03-21T04:39:08.550Z,8.34
2023-03-21T04:41:34.940Z,8.25
2023-03-21T04:44:01.658Z,8.35
2023-03-21T04:46:28.067Z,8.35
2023-03-21T04:48:54.413Z,8.23
2023-03-21T04:51:20.803Z,8.15
2023-03-21T04:53:47.181Z,7.99
2023-03-21T04:56:13.580Z,7.57
2023-03-21T04:58:39.924Z,7.82
2023-03-21T05:01:06.311Z,7.77
2023-03-21T05:03:33.204Z,7.92
2023-03-21T05:05:59.578Z,7.10
2023-03-21T05:08:25.919Z,7.12
2023-03-21T05:10:52.307Z,7.40
2023-03-21T05:13:18.656Z,7.64
2023-03-21T05:15:45.005Z,7.84
2023-03-21T05:18:11.396Z,7.97
2023-03-21T05:20:37.783Z,7.62
2023-03-21T05:23:04.131Z,7.67
2023-03-21T05:25:30.462Z,8.10
2023-03-21T05:27:56.846Z,7.42
2023-03-21T05:30:23.243Z,7.42
2023-03-21T05:32:49.634Z,7.31
2023-03-21T05:35:16.022Z,7.41
2023-03-21T05:37:42.415Z,7.37
2023-03-21T05:40:08.858Z,7.63
2023-03-21T05:42:35.198Z,7.59
2023-03-21T05:45:01.571Z,7.54
2023-03-21T05:47:27.913Z,7.74
2023-03-21T05:49:54.247Z,7.65
2023-03-21T05:52:20.589Z,7.59
2023-03-21T05:54:46.942Z,7.67
2023-03-21T05:57:13.290Z,7.55
2023-03-21T05:59:39.643Z,7.55
2023-03-21T06:02:06.027Z,7.61
2023-03-21T06:04:32.410Z,7.59
2023-03-21T06:06:58.799Z,7.81
2023-03-21T06:09:25.192Z,7.98
2023-03-21T06:11:51.585Z,8.01
2023-03-21T06:14:17.926Z,7.88
2023-03-21T06:16:44.281Z,7.85
2023-03-21T06:19:10.623Z,8.33
2023-03-21T06:21:36.988Z,8.28
2023-03-21T06:24:03.338Z,8.58
2023-03-21T06:26:29.718Z,8.65
2023-03-21T06:28:56.148Z,8.63
2023-03-21T06:31:22.636Z,8.75
2023-03-21T06:33:49.096Z,8.76
2023-03-21T06:36:15.499Z,8.92
2023-03-21T06:38:41.844Z,8.96
2023-03-21T06:41:08.265Z,8.76
2023-03-21T06:43:34.598Z,8.77
2023-03-21T06:46:01.002Z,9.02
2023-03-21T06:48:27.549Z,9.18
2023-03-21T06:50:53.980Z,9.17
2023-03-21T06:53:20.343Z,9.40
2023-03-21T06:55:46.721Z,9.62
2023-03-21T06:58:13.069Z,9.41
2023-03-21T07:00:39.435Z,9.64
2023-03-21T07:03:05.846Z,9.71
2023-03-21T07:05:32.210Z,9.88
2023-03-21T07:07:58.561Z,9.62
2023-03-21T07:10:24.938Z,9.52
2023-03-21T07:12:51.288Z,9.49
2023-03-21T07:15:17.693Z,9.68
2023-03-21T07:17:44.042Z,9.84
2023-03-21T07:20:10.465Z,9.62
2023-03-21T07:22:36.851Z,9.86
2023-03-21T07:25:05.413Z,10.16
2023-03-21T07:27:32.014Z,10.21
2023-03-21T07:29:58.340Z,10.00
2023-03-21T07:32:24.715Z,10.10
2023-03-21T07:34:51.069Z,10.13
2023-03-21T07:37:17.410Z,9.98
2023-03-21T07:39:43.809Z,10.15
2023-03-21T07:44:41.437Z,10.15
2023-03-21T07:47:07.793Z,10.38
2023-03-21T07:49:34.173Z,10.08
2023-03-21T07:52:00.738Z,10.36
2023-03-21T07:54:27.470Z,10.48
2023-03-21T07:56:53.847Z,10.65
2023-03-21T07:59:20.195Z,10.62
2023-03-21T08:01:46.577Z,10.73
2023-03-21T08:04:12.963Z,10.70
2023-03-21T08:06:39.348Z,10.98
2023-03-21T08:09:05.690Z,11.14
2023-03-21T08:11:32.017Z,11.23
2023-03-21T08:13:58.395Z,11.05
2023-03-21T08:16:24.796Z,11.20
2023-03-21T08:18:51.191Z,11.33
2023-03-21T08:21:17.541Z,11.56
2023-03-21T08:23:43.914Z,11.76
2023-03-21T08:26:10.305Z,11.53
2023-03-21T08:28:36.675Z,11.69
2023-03-21T08:31:03.096Z,11.70
2023-03-21T08:33:29.465Z,10.98
2023-03-21T08:35:55.827Z,11.41
2023-03-21T08:38:22.240Z,11.53
2023-03-21T08:40:48.619Z,11.33
2023-03-21T08:43:15.132Z,11.64
2023-03-21T08:45:41.560Z,11.82
2023-03-21T08:48:07.965Z,11.29
2023-03-21T08:50:34.379Z,10.56
2023-03-21T08:53:00.788Z,11.17
2023-03-21T08:55:27.149Z,11.18
2023-03-21T08:57:53.505Z,10.69
2023-03-21T09:00:19.886Z,10.56
2023-03-21T09:02:46.236Z,11.28
2023-03-21T09:05:12.642Z,11.55
2023-03-21T09:07:39.032Z,11.61
2023-03-21T09:10:20.272Z,11.84
2023-03-21T09:12:47.755Z,11.96
2023-03-21T09:15:14.178Z,12.17
2023-03-21T09:17:40.524Z,12.34
2023-03-21T09:20:06.866Z,12.51
2023-03-21T09:22:33.252Z,12.31
2023-03-21T09:24:59.595Z,12.44
2023-03-21T09:27:25.986Z,12.05
2023-03-21T09:29:52.371Z,11.59
2023-03-21T09:32:18.761Z,11.62
2023-03-21T09:34:45.147Z,11.97
2023-03-21T09:37:11.565Z,12.03
2023-03-21T09:39:38.152Z,12.03
2023-03-21T09:42:04.499Z,11.40
2023-03-21T09:44:30.883Z,11.82
2023-03-21T09:46:57.279Z,12.18
2023-03-21T09:49:23.664Z,11.99
2023-03-21T09:51:50.004Z,12.53
2023-03-21T09:54:16.363Z,12.30
2023-03-21T09:56:42.754Z,12.61
2023-03-21T09:59:09.154Z,12.58
2023-03-21T10:01:35.522Z,12.80
2023-03-21T10:04:01.946Z,12.74
2023-03-21T10:06:28.381Z,12.83
2023-03-21T10:08:57.011Z,12.64
2023-03-21T10:11:23.483Z,12.38
2023-03-21T10:13:49.876Z,12.68
2023-03-21T10:16:16.342Z,11.72
2023-03-21T10:18:42.744Z,11.98
2023-03-21T10:21:09.121Z,12.77
2023-03-21T10:23:35.516Z,12.50
2023-03-21T10:26:01.869Z,13.04
2023-03-21T10:28:28.520Z,13.17
2023-03-21T10:30:54.949Z,13.42
2023-03-21T10:33:21.310Z,12.85
2023-03-21T10:35:47.692Z,13.00
2023-03-21T10:38:14.044Z,12.92
2023-03-21T10:40:40.391Z,12.46
2023-03-21T10:43:06.771Z,12.27
2023-03-21T10:45:33.180Z,12.16
2023-03-21T10:47:59.804Z,13.01
2023-03-21T10:50:26.286Z,13.34
2023-03-21T10:52:52.692Z,13.20
2023-03-21T10:55:19.083Z,13.64
2023-03-21T10:57:45.513Z,13.83
2023-03-21T11:00:11.910Z,13.61
2023-03-21T11:02:38.381Z,14.01
2023-03-21T11:05:04.775Z,13.36
2023-03-21T11:07:31.202Z,13.98
2023-03-21T11:09:57.552Z,14.13
2023-03-21T11:12:23.912Z,14.22
2023-03-21T11:14:50.295Z,14.36
2023-03-21T11:17:16.749Z,14.58
2023-03-21T11:19:43.142Z,14.59
2023-03-21T11:22:09.490Z,14.18
2023-03-21T11:24:35.861Z,14.17
2023-03-21T11:27:02.202Z,14.36
2023-03-21T11:29:28.598Z,13.49
2023-03-21T11:31:54.945Z,14.21
2023-03-21T11:34:21.364Z,14.64
2023-03-21T11:36:47.755Z,14.79
2023-03-21T11:39:14.201Z,14.74
2023-03-21T11:41:40.569Z,14.24
2023-03-21T11:44:06.931Z,14.67
2023-03-21T11:46:33.640Z,13.88
2023-03-21T11:49:00.062Z,14.01
2023-03-21T11:51:26.463Z,13.59
2023-03-21T11:53:52.804Z,13.57
2023-03-21T11:56:19.189Z,14.18
2023-03-21T11:58:45.606Z,14.45
2023-03-21T12:01:11.973Z,13.79
2023-03-21T12:03:47.298Z,14.40
2023-03-21T12:06:14.555Z,14.06
2023-03-21T12:08:40.930Z,14.52
2023-03-21T12:11:07.336Z,14.58
2023-03-21T12:13:33.704Z,14.40
2023-03-21T12:16:00.309Z,14.47
2023-03-21T12:18:26.738Z,14.48
2023-03-21T12:20:53.137Z,14.89
2023-03-21T12:23:19.560Z,14.52
2023-03-21T12:25:45.920Z,14.87
2023-03-21T12:28:13.877Z,14.83
2023-03-21T12:30:41.579Z,15.02
2023-03-21T12:33:08.104Z,15.32
2023-03-21T12:35:34.485Z,15.13
2023-03-21T12:38:00.877Z,14.64
2023-03-21T12:40:27.222Z,14.96
2023-03-21T12:42:53.603Z,15.10
2023-03-21T12:45:19.962Z,15.01
2023-03-21T12:47:46.328Z,15.15
2023-03-21T12:50:12.741Z,15.57
2023-03-21T12:52:39.203Z,15.58
2023-03-21T12:55:05.608Z,15.58
2023-03-21T12:57:31.989Z,15.67
2023-03-21T12:59:58.326Z,15.66
2023-03-21T13:02:24.722Z,15.65
2023-03-21T13:04:51.077Z,15.85
2023-03-21T13:07:17.458Z,15.44
2023-03-21T13:09:43.804Z,15.91
2023-03-21T13:12:10.150Z,15.71
2023-03-21T13:14:36.730Z,16.00
2023-03-21T13:17:03.114Z,15.57
2023-03-21T13:19:29.488Z,15.75
2023-03-21T13:21:55.883Z,16.01
2023-03-21T13:24:22.239Z,16.23
2023-03-21T13:26:48.622Z,15.82
2023-03-21T13:29:14.976Z,16.19
2023-03-21T13:31:51.407Z,15.78
2023-03-21T13:34:18.239Z,15.86
2023-03-21T13:36:44.623Z,16.22
2023-03-21T13:39:10.986Z,16.31
2023-03-21T13:41:37.421Z,16.35
2023-03-21T13:44:03.831Z,16.58
2023-03-21T13:46:34.022Z,16.73
2023-03-21T13:49:04.421Z,15.89
2023-03-21T13:51:30.811Z,16.10
2023-03-21T13:53:57.203Z,16.06
2023-03-21T13:56:23.732Z,16.21
2023-03-21T13:58:50.154Z,16.20
2023-03-21T14:01:16.569Z,16.18
2023-03-21T14:03:42.939Z,15.94
2023-03-21T14:06:09.369Z,16.20
2023-03-21T14:08:37.700Z,16.25
2023-03-21T14:11:04.304Z,15.87
2023-03-21T14:13:33.049Z,15.82
2023-03-21T14:16:02.059Z,16.26
2023-03-21T14:18:52.280Z,16.23
2023-03-21T14:21:23.328Z,16.55
2023-03-21T14:23:50.312Z,16.61
2023-03-21T14:26:16.709Z,16.37
2023-03-21T14:28:43.114Z,16.46
2023-03-21T14:31:09.553Z,16.49
2023-03-21T14:33:35.993Z,16.39
2023-03-21T14:36:02.359Z,16.47
2023-03-21T14:38:28.742Z,16.57
2023-03-21T14:40:55.174Z,16.11
2023-03-21T14:43:21.553Z,16.25
2023-03-21T14:45:47.947Z,16.39
2023-03-21T14:48:14.324Z,16.14
2023-03-21T14:50:40.792Z,16.54
2023-03-21T14:53:07.236Z,16.74
2023-03-21T14:55:33.594Z,16.61
2023-03-21T14:57:59.942Z,16.86
2023-03-21T15:00:26.343Z,17.03
2023-03-21T15:02:52.877Z,16.81
2023-03-21T15:05:19.367Z,16.99
2023-03-21T15:07:45.792Z,16.87
2023-03-21T15:10:12.178Z,17.08
2023-03-21T15:12:38.566Z,17.31
2023-03-21T15:15:04.985Z,17.33
2023-03-21T15:17:31.382Z,17.13
2023-03-21T15:19:57.733Z,17.01
2023-03-21T15:22:24.107Z,16.84
2023-03-21T15:24:50.451Z,16.78
2023-03-21T15:27:16.835Z,16.89
2023-03-21T15:29:43.232Z,16.77
2023-03-21T15:32:09.579Z,16.55
2023-03-21T15:34:35.966Z,16.67
2023-03-21T15:37:02.355Z,16.42
2023-03-21T15:39:28.753Z,16.40
2023-03-21T15:41:55.135Z,16.49
2023-03-21T15:44:21.526Z,16.53
2023-03-21T15:46:47.939Z,16.41
2023-03-21T15:49:14.316Z,16.02
2023-03-21T15:51:40.658Z,16.01
2023-03-21T15:54:07.056Z,15.96
2023-03-21T15:56:33.402Z,16.04
2023-03-21T15:58:59.749Z,16.02
2023-03-21T16:01:26.203Z,15.97
2023-03-21T16:03:52.738Z,16.15
2023-03-21T16:06:19.119Z,16.24
2023-03-21T16:08:45.495Z,16.21
2023-03-21T16:11:11.866Z,16.26
2023-03-21T16:13:38.215Z,15.96
2023-03-21T16:16:04.633Z,16.20
2023-03-21T16:18:31.069Z,15.63
2023-03-21T16:20:57.418Z,15.74
2023-03-21T16:23:23.823Z,15.91
2023-03-21T16:25:50.200Z,16.17
2023-03-21T16:28:16.567Z,16.37
2023-03-21T16:30:42.903Z,16.36
2023-03-21T16:33:09.278Z,16.39
2023-03-21T16:35:35.677Z,15.90
2023-03-21T16:38:02.019Z,15.82
2023-03-21T16:40:28.359Z,15.68
2023-03-21T16:42:54.740Z,15.78
2023-03-21T16:45:21.085Z,15.75
2023-03-21T16:47:47.539Z,15.69
2023-03-21T16:50:13.899Z,15.43
2023-03-21T16:52:40.283Z,15.55
2023-03-21T16:55:06.634Z,15.81
2023-03-21T16:57:33.007Z,15.98
2023-03-21T16:59:59.400Z,16.06
2023-03-21T17:02:25.762Z,16.17
2023-03-21T17:04:52.156Z,15.93
2023-03-21T17:07:18.522Z,15.81
2023-03-21T17:09:44.860Z,15.97
2023-03-21T17:12:11.248Z,16.26
2023-03-21T17:14:37.633Z,16.48
2023-03-21T17:17:07.106Z,15.92
2023-03-21T17:19:33.528Z,15.64
2023-03-21T17:21:59.919Z,15.65
2023-03-21T17:24:26.293Z,15.70
2023-03-21T17:26:52.693Z,15.76
2023-03-21T17:29:19.045Z,15.71
2023-03-21T17:31:45.416Z,15.63
2023-03-21T17:34:11.824Z,15.59
2023-03-21T17:36:38.181Z,15.46
2023-03-21T17:39:04.537Z,15.38
2023-03-21T17:41:30.910Z,15.42
2023-03-21T17:43:57.267Z,15.10
2023-03-21T17:46:23.699Z,15.06
2023-03-21T17:48:50.101Z,14.64
2023-03-21T17:51:16.525Z,14.36
2023-03-21T17:53:42.932Z,14.55
2023-03-21T17:56:09.318Z,13.95
2023-03-21T17:58:35.718Z,14.07
2023-03-21T18:01:02.089Z,14.15
2023-03-21T18:03:29.557Z,14.45
2023-03-21T18:05:55.904Z,14.59
2023-03-21T18:08:22.242Z,14.38
2023-03-21T18:10:48.619Z,14.33
2023-03-21T18:13:14.967Z,14.34
2023-03-21T18:15:43.969Z,14.26
2023-03-21T18:18:10.955Z,13.72
2023-03-21T18:20:54.477Z,14.17
2023-03-21T18:23:21.333Z,14.24
2023-03-21T18:25:47.853Z,14.13
2023-03-21T18:28:14.456Z,14.12
2023-03-21T18:31:00.692Z,13.96
2023-03-21T18:33:30.275Z,13.44
2023-03-21T18:36:00.130Z,13.59
2023-03-21T18:38:26.903Z,13.76
2023-03-21T18:40:53.262Z,13.81
2023-03-21T18:46:06.155Z,13.57
2023-03-21T18:48:34.140Z,13.17
2023-03-21T18:51:00.731Z,13.13
2023-03-21T18:53:27.124Z,13.19
2023-03-21T18:55:53.684Z,13.04
2023-03-21T18:58:20.118Z,13.00
2023-03-21T19:00:46.586Z,12.78
2023-03-21T19:03:22.117Z,12.89
2023-03-21T19:05:59.169Z,13.15
2023-03-21T19:08:25.510Z,13.00
2023-03-21T19:10:51.849Z,12.86
2023-03-21T19:13:18.244Z,12.93
2023-03-21T19:15:45.794Z,12.94
2023-03-21T19:20:58.668Z,13.07
2023-03-21T19:23:25.022Z,13.16
2023-03-21T19:25:51.355Z,13.05
2023-03-21T19:28:17.748Z,12.77
2023-03-21T19:30:49.843Z,12.73
2023-03-21T19:33:17.050Z,12.92
2023-03-21T19:35:43.436Z,13.15
2023-03-21T19:38:09.790Z,13.22
2023-03-21T19:40:36.422Z,13.34
2023-03-21T19:43:21.601Z,13.48
2023-03-21T19:45:49.236Z,13.57
2023-03-21T19:48:15.644Z,13.72
2023-03-21T19:51:06.040Z,13.74
2023-03-21T19:53:28.311Z,13.68
2023-03-21T19:55:54.698Z,13.67
2023-03-21T19:58:22.734Z,13.61
2023-03-21T20:00:49.199Z,13.61
2023-03-21T20:03:15.620Z,13.51
2023-03-21T20:05:42.066Z,13.25
2023-03-21T20:08:10.999Z,13.39
2023-03-21T20:10:37.875Z,13.36
2023-03-21T20:13:04.475Z,13.33
2023-03-21T20:15:30.933Z,12.81
2023-03-21T20:17:57.333Z,12.69
2023-03-21T20:20:23.683Z,12.99
2023-03-21T20:23:07.972Z,12.89
2023-03-21T20:25:34.704Z,12.91
2023-03-21T20:28:15.154Z,13.05
2023-03-21T20:30:43.139Z,13.04
2023-03-21T20:33:09.511Z,13.01
2023-03-21T20:36:27.663Z,12.96
2023-03-21T20:38:22.200Z,12.95
2023-03-21T20:40:48.579Z,13.02
2023-03-21T20:44:06.423Z,13.04
2023-03-21T20:46:01.357Z,13.12
2023-03-21T20:48:27.735Z,13.27
2023-03-21T20:51:01.016Z,13.33
2023-03-21T20:53:27.584Z,13.53
2023-03-21T20:55:53.939Z,13.53
2023-03-21T20:58:45.146Z,13.17
2023-03-21T21:01:06.584Z,13.36
2023-03-21T21:03:32.931Z,13.34
2023-03-21T21:05:59.322Z,13.33
2023-03-21T21:08:25.774Z,13.48
2023-03-21T21:11:30.239Z,13.48
2023-03-21T21:13:38.484Z,13.38
2023-03-21T21:16:04.954Z,13.42
2023-03-21T21:18:32.453Z,13.54
2023-03-21T21:20:58.888Z,13.45
2023-03-21T21:23:25.603Z,13.51
2023-03-21T21:25:51.972Z,13.57
2023-03-21T21:28:18.359Z,13.72
2023-03-21T21:30:44.753Z,13.28
2023-03-21T21:33:11.109Z,13.44
2023-03-21T21:35:37.527Z,13.32
2023-03-21T21:38:03.970Z,13.18
2023-03-21T21:40:30.383Z,13.23
2023-03-21T21:42:56.729Z,13.23
2023-03-21T21:45:23.080Z,13.26
2023-03-21T21:47:49.554Z,13.31
2023-03-21T21:50:16.002Z,13.32
2023-03-21T21:52:42.393Z,13.22
2023-03-21T21:55:08.787Z,13.34
2023-03-21T21:57:35.192Z,12.98
2023-03-21T22:00:01.601Z,13.11
2023-03-21T22:02:27.982Z,13.20
2023-03-21T22:04:54.354Z,13.48
2023-03-21T22:07:20.756Z,13.25
2023-03-21T22:09:47.148Z,13.41
2023-03-21T22:12:13.512Z,13.30
2023-03-21T22:14:39.884Z,13.04
2023-03-21T22:17:06.281Z,13.28
2023-03-21T22:19:32.694Z,13.18
2023-03-21T22:21:59.097Z,13.30
2023-03-21T22:24:25.503Z,13.11
2023-03-21T22:26:51.949Z,13.16
2023-03-21T22:29:18.342Z,13.15
2023-03-21T22:31:44.735Z,13.33
2023-03-21T22:34:11.143Z,13.27
2023-03-21T22:36:37.554Z,13.51
2023-03-21T22:39:03.916Z,13.70
2023-03-21T22:41:30.266Z,13.81
2023-03-21T22:43:56.655Z,13.63
2023-03-21T22:46:23.066Z,13.83
2023-03-21T22:48:49.505Z,13.77
2023-03-21T22:51:15.900Z,13.96
2023-03-21T22:53:42.323Z,13.83
2023-03-21T22:56:08.724Z,13.78
2023-03-21T22:58:35.088Z,13.75
2023-03-21T23:01:01.528Z,13.61
2023-03-21T23:03:28.011Z,13.85
2023-03-21T23:05:56.684Z,13.77
2023-03-21T23:08:23.144Z,13.76
2023-03-21T23:10:49.544Z,13.47
2023-03-21T23:13:15.905Z,13.63
2023-03-21T23:15:42.289Z,13.38
2023-03-21T23:18:08.664Z,13.28
2023-03-21T23:20:35.090Z,13.41
2023-03-21T23:23:01.521Z,13.48
2023-03-21T23:25:27.909Z,13.47
2023-03-21T23:27:54.294Z,13.24
2023-03-21T23:30:20.685Z,12.92
2023-03-21T23:32:47.095Z,13.02
2023-03-21T23:35:13.481Z,12.95
2023-03-21T23:37:39.867Z,12.84
2023-03-21T23:40:06.432Z,12.79
2023-03-21T23:42:32.848Z,12.82
2023-03-21T23:44:59.232Z,12.79
2023-03-21T23:47:25.602Z,12.37
2023-03-21T23:49:51.997Z,12.26
2023-03-21T23:52:18.354Z,12.00
2023-03-21T23:54:44.769Z,12.14
2023-03-21T23:57:11.156Z,12.14
2023-03-21T23:59:37.550Z,11.50
